Atlantic - Maritimes: Past 24 Hour Conditions

 

East Scotia Slope - 44137

10:00 PM AST 21 November 2014Buoy position: 42.28N 62.0W
This table is a summary of hourly weather conditions for the past 24 hours.
Date / Time
(AST)
Wind(knots) Wave height(m) Wave period(s) Pressure(kPa) Air tempC) Water tempC)
21 November 2014
22:00 NW 29 gust 35 4.3 10.0 101.6 5 16
21:00 NW 31 gust 37 4.2 11.0 101.5 4 16
20:00 WNW 29 gust 39 4.7 10.0 101.3 5 16
19:00 WNW 29 gust 41 4.5 10.0 101.2 5 16
18:00 WNW 29 gust 35 4.2 10.0 101.1 5 16
17:00 WNW 27 gust 35 4.0 9.0 101.1 5 16
16:00 WNW 25 gust 31 4.1 10.0 101.0 6 16
15:00 WNW 23 gust 29 3.9 8.0 100.8 5 16
14:00 W 31 gust 37 3.8 10.0 100.8 7 16
13:00 W 25 gust 39 3.2 8.0 100.7 7 16
12:00 WNW 21 gust 27 3.0 9.0 100.8 8 16
11:00 WNW 23 gust 29 2.6 9.0 100.9 7 17
10:00 W 19 gust 25 2.6 8.0 100.8 9 16
9:00 WNW 14 gust 18 2.4 8.0 100.8 10 16
8:00 W 12 gust 16 2.3 8.0 100.8 10 16
7:00 WNW 16 gust 18 2.3 8.0 100.8 10 16
6:00 WNW 19 gust 23 2.7 8.0 100.8 10 16
5:00 W 23 gust 29 2.5 8.0 100.9 10 16
4:00 W 16 gust 19 2.6 8.0 100.8 11 16
3:00 WNW 18 gust 21 2.8 8.0 100.8 12 16
2:00 WNW 18 gust 21 2.9 8.0 100.8 12 16
1:00 WNW 25 gust 29 2.9 7.0 100.9 12 16
0:00 SW 23 gust 27 2.7 7.0 100.9 15 17
20 November 2014
23:00 SW 21 gust 27 2.6 7.0 100.9 15 17
22:00 SW 21 gust 29 2.5 8.0 101.0 15 17
 
Map of Atlantic - Maritimes marine weather areas East Scotia Slope - 44137 Southwestern Grand Banks - 44138 Banquereau - 44139 Laurentian Fan - 44141 LaHave Bank - 44150 Northeast Burgeo Bank - 44255 Halifax Harbour - 44258 Mont-Louis - 45138 Baie-Comeau Airport Havre-Saint-Pierre Airport Longue-Pointe-de-Mingan Sept-Îles Airport Cap-d'Espoir Rivière-la-Madeleine Gaspé Airport Heath Point La Pocatière Mont-Joli Airport New Carlisle Pointe-au-Père Port Menier Rivière-du-Loup Bas Caraquet Bathurst Airport Bouctouche AAFC Charlo Miramichi Fundy Park (Alma) Grand Manan Kouchibouguac Miscou Island Greater Moncton Int'l Airport Point Lepreau Saint John Airport St. Stephen Baccaro Point Beaver Island Brier Island Caribou Point Debert Grand Étang CFB Greenwood Hart Island Ingonish Beach Kentville AAFC Lunenburg McNabs Island Nappan AAFC North Mountain Parrsboro Sable Island St.Paul Island Shearwater Airport J.A. Douglas McCurdy Sydney Airport Tracadie Western Head Yarmouth Airport Charlottetown Airport East Point North Cape Summerside Burgeo Port aux Basques Sagona Island St. Lawrence Stephenville Airport Winterland Wreckhouse Île aux Perroquets Île Rouge Pointe-des-Monts Pointe-Noire Île Bicquette Cap-Chat Îles de la Madeleine Airport
Legend: buoyBuoy land stationLand Station » US Marine Weather